UAL155 PKMJ-PHNL
Flight info
| Callsign | UAL155 |
|---|---|
| Flight time | 4h 20m |
| Altitude | 35000 |
| Route | MAJ R584 CHOKO OPACA4 |
| Aircraft | B738/M-SDE2E3FGHIRWXY/LB1 |
Departure
| Time | 2026-05-04 15:48 |
|---|---|
| Airport | Marshall Islands International Airport (PKMJ) |
Arrival
| Time | 2026-05-04 20:09 |
|---|---|
| Airport | Daniel K. Inouye International Airport (PHNL) |
| Time | Latitude | Longitude | Altitude | Speed | Heading |
|---|---|---|---|---|---|
| 2026-05-04 15:38 | 7.06782 | 171.28154 | 9 ft | 0 kts | 192° |
| 2026-05-04 15:44 | 7.06766 | 171.28148 | 3 ft | 8 kts | 208° |
| 2026-05-04 15:44 | 7.06712 | 171.28038 | 3 ft | 27 kts | 259° |
| 2026-05-04 15:44 | 7.06645 | 171.27803 | 6 ft | 42 kts | 250° |
| 2026-05-04 15:45 | 7.06567 | 171.27484 | 3 ft | 47 kts | 257° |
| 2026-05-04 15:45 | 7.06492 | 171.27171 | 4 ft | 44 kts | 256° |
| 2026-05-04 15:45 | 7.06420 | 171.26883 | 2 ft | 42 kts | 256° |
| 2026-05-04 15:45 | 7.06351 | 171.26612 | 0 ft | 39 kts | 255° |
| 2026-05-04 15:46 | 7.06281 | 171.26359 | -1 ft | 36 kts | 254° |
| 2026-05-04 15:46 | 7.06235 | 171.26190 | 0 ft | 14 kts | 263° |
| 2026-05-04 15:46 | 7.06243 | 171.26174 | 0 ft | 0 kts | 326° |
| 2026-05-04 15:46 | 7.06255 | 171.26197 | 2 ft | 3 kts | 79° |
| 2026-05-04 15:47 | 7.06256 | 171.26199 | 2 ft | 0 kts | 77° |
| 2026-05-04 15:47 | 7.06260 | 171.26219 | 1 ft | 21 kts | 77° |
| 2026-05-04 15:48 | 7.06357 | 171.26616 | 0 ft | 94 kts | 76° |
| 2026-05-04 15:48 | 7.06571 | 171.27470 | 22 ft | 153 kts | 75° |
| 2026-05-04 15:48 | 7.07248 | 171.29631 | 1476 ft | 163 kts | 60° |
| 2026-05-04 15:49 | 7.07851 | 171.30645 | 2048 ft | 178 kts | 60° |
| 2026-05-04 15:49 | 7.08503 | 171.31774 | 2388 ft | 193 kts | 62° |
| 2026-05-04 15:49 | 7.09183 | 171.33023 | 2584 ft | 213 kts | 63° |
| 2026-05-04 15:49 | 7.09953 | 171.34384 | 2800 ft | 235 kts | 61° |
| 2026-05-04 15:50 | 7.10803 | 171.35839 | 3356 ft | 245 kts | 62° |
| 2026-05-04 15:50 | 7.11666 | 171.37328 | 4078 ft | 248 kts | 62° |
| 2026-05-04 15:50 | 7.12532 | 171.38839 | 4829 ft | 251 kts | 62° |
| 2026-05-04 15:50 | 7.13407 | 171.40382 | 5527 ft | 254 kts | 62° |
| 2026-05-04 15:51 | 7.14280 | 171.41931 | 6213 ft | 259 kts | 62° |
| 2026-05-04 15:51 | 7.15177 | 171.43532 | 6853 ft | 263 kts | 63° |
| 2026-05-04 15:51 | 7.16076 | 171.45146 | 7517 ft | 265 kts | 63° |
| 2026-05-04 15:51 | 7.16980 | 171.46773 | 8215 ft | 267 kts | 63° |
| 2026-05-04 15:52 | 7.17898 | 171.48431 | 8781 ft | 274 kts | 63° |
| 2026-05-04 15:52 | 7.18840 | 171.50137 | 9321 ft | 282 kts | 63° |
| 2026-05-04 15:52 | 7.19792 | 171.51861 | 10015 ft | 283 kts | 63° |
| 2026-05-04 15:52 | 7.20773 | 171.53645 | 10248 ft | 302 kts | 63° |
| 2026-05-04 15:53 | 7.21823 | 171.55557 | 10411 ft | 322 kts | 63° |
| 2026-05-04 15:53 | 7.22935 | 171.57580 | 10698 ft | 335 kts | 63° |
| 2026-05-04 15:53 | 7.24059 | 171.59625 | 11136 ft | 343 kts | 62° |
| 2026-05-04 15:53 | 7.25226 | 171.61745 | 11627 ft | 347 kts | 63° |
| 2026-05-04 15:54 | 7.26398 | 171.63876 | 12253 ft | 349 kts | 63° |
| 2026-05-04 15:54 | 7.27586 | 171.66037 | 12718 ft | 356 kts | 62° |
| 2026-05-04 15:54 | 7.28795 | 171.68240 | 13169 ft | 362 kts | 62° |
| 2026-05-04 15:54 | 7.30021 | 171.70470 | 13696 ft | 366 kts | 62° |
| 2026-05-04 15:55 | 7.31258 | 171.72723 | 14177 ft | 369 kts | 62° |
| 2026-05-04 15:55 | 7.32501 | 171.74989 | 14691 ft | 371 kts | 62° |
| 2026-05-04 15:55 | 7.33751 | 171.77265 | 15199 ft | 372 kts | 61° |
| 2026-05-04 15:55 | 7.35014 | 171.79552 | 15690 ft | 375 kts | 61° |
| 2026-05-04 15:56 | 7.36296 | 171.81848 | 16130 ft | 378 kts | 60° |
| 2026-05-04 15:56 | 7.37621 | 171.84161 | 16547 ft | 383 kts | 59° |
| 2026-05-04 15:56 | 7.38994 | 171.86472 | 16964 ft | 387 kts | 58° |
| 2026-05-04 15:56 | 7.40428 | 171.88777 | 17413 ft | 389 kts | 57° |
| 2026-05-04 15:57 | 7.41923 | 171.91058 | 17872 ft | 391 kts | 55° |
| 2026-05-04 15:57 | 7.43484 | 171.93312 | 18296 ft | 393 kts | 54° |
| 2026-05-04 15:57 | 7.45121 | 171.95535 | 18651 ft | 396 kts | 52° |
| 2026-05-04 15:57 | 7.46833 | 171.97727 | 18984 ft | 400 kts | 51° |
| 2026-05-04 15:58 | 7.48624 | 171.99884 | 19319 ft | 403 kts | 49° |
| 2026-05-04 15:58 | 7.50489 | 172.02002 | 19669 ft | 405 kts | 47° |
| 2026-05-04 15:58 | 7.52427 | 172.04078 | 20040 ft | 407 kts | 46° |
| 2026-05-04 15:58 | 7.54351 | 172.06177 | 20402 ft | 409 kts | 53° |
| 2026-05-04 15:59 | 7.55842 | 172.08620 | 20786 ft | 410 kts | 62° |
| 2026-05-04 15:59 | 7.57162 | 172.11173 | 21177 ft | 411 kts | 63° |
| 2026-05-04 15:59 | 7.58458 | 172.13755 | 21516 ft | 414 kts | 63° |
| 2026-05-04 15:59 | 7.59770 | 172.16351 | 21833 ft | 417 kts | 63° |
| 2026-05-04 16:00 | 7.61111 | 172.18950 | 22170 ft | 419 kts | 63° |
| 2026-05-04 16:00 | 7.62477 | 172.21554 | 22507 ft | 421 kts | 62° |
| 2026-05-04 16:00 | 7.63866 | 172.24164 | 22843 ft | 423 kts | 62° |
| 2026-05-04 16:00 | 7.65271 | 172.26783 | 23159 ft | 426 kts | 62° |
| 2026-05-04 16:01 | 7.66689 | 172.29412 | 23468 ft | 428 kts | 62° |
| 2026-05-04 16:01 | 7.68116 | 172.32051 | 23721 ft | 430 kts | 62° |
| 2026-05-04 16:01 | 7.69551 | 172.34704 | 23972 ft | 432 kts | 62° |
| 2026-05-04 16:01 | 7.70975 | 172.37335 | 24241 ft | 434 kts | 62° |
| 2026-05-04 16:02 | 7.72422 | 172.40010 | 24478 ft | 436 kts | 62° |
| 2026-05-04 16:02 | 7.73878 | 172.42701 | 24733 ft | 438 kts | 62° |
| 2026-05-04 16:02 | 7.76812 | 172.48130 | 25196 ft | 443 kts | 62° |
| 2026-05-04 16:03 | 7.78286 | 172.50858 | 25457 ft | 444 kts | 62° |
| 2026-05-04 16:03 | 7.79769 | 172.53604 | 25682 ft | 447 kts | 62° |
| 2026-05-04 16:03 | 7.81257 | 172.56358 | 25941 ft | 448 kts | 62° |
| 2026-05-04 16:03 | 7.82751 | 172.59125 | 26143 ft | 451 kts | 62° |
| 2026-05-04 16:04 | 7.84253 | 172.61908 | 26399 ft | 452 kts | 62° |
| 2026-05-04 16:04 | 7.87275 | 172.67508 | 26853 ft | 456 kts | 61° |
| 2026-05-04 16:04 | 7.88793 | 172.70322 | 27056 ft | 458 kts | 61° |
| 2026-05-04 16:05 | 7.90319 | 172.73151 | 27295 ft | 460 kts | 61° |
| 2026-05-04 16:05 | 7.91850 | 172.75989 | 27497 ft | 462 kts | 61° |
| 2026-05-04 16:05 | 7.94930 | 172.81703 | 27926 ft | 465 kts | 61° |
| 2026-05-04 16:06 | 7.96482 | 172.84582 | 28102 ft | 468 kts | 61° |
| 2026-05-04 16:06 | 8.00632 | 172.92284 | 28685 ft | 471 kts | 61° |
| 2026-05-04 16:07 | 8.02731 | 172.96182 | 28894 ft | 475 kts | 61° |
| 2026-05-04 16:07 | 8.07477 | 173.04999 | 29491 ft | 478 kts | 61° |
| 2026-05-04 16:08 | 8.09067 | 173.07954 | 29647 ft | 481 kts | 61° |
| 2026-05-04 16:08 | 8.13865 | 173.16875 | 30160 ft | 484 kts | 61° |
| 2026-05-04 16:09 | 8.17072 | 173.22839 | 30507 ft | 485 kts | 61° |
| 2026-05-04 16:09 | 8.20283 | 173.28816 | 31008 ft | 483 kts | 60° |
| 2026-05-04 16:10 | 8.23470 | 173.34750 | 31478 ft | 482 kts | 60° |
| 2026-05-04 16:11 | 8.28252 | 173.43660 | 32347 ft | 476 kts | 59° |
| 2026-05-04 16:11 | 8.29829 | 173.46601 | 32526 ft | 477 kts | 60° |
| 2026-05-04 16:12 | 8.34593 | 173.55480 | 33121 ft | 478 kts | 59° |
| 2026-05-04 16:12 | 8.38784 | 173.63301 | 33805 ft | 475 kts | 59° |
| 2026-05-04 16:13 | 8.41927 | 173.69169 | 34153 ft | 475 kts | 59° |
| 2026-05-04 16:13 | 8.45072 | 173.75041 | 34488 ft | 475 kts | 59° |
| 2026-05-04 16:14 | 8.48213 | 173.80908 | 34833 ft | 475 kts | 59° |
| 2026-05-04 16:14 | 8.51366 | 173.86801 | 34852 ft | 478 kts | 59° |
| 2026-05-04 16:16 | 8.59207 | 174.01471 | 34857 ft | 472 kts | 59° |
| 2026-05-04 16:17 | 8.66974 | 174.16015 | 34859 ft | 470 kts | 59° |
| 2026-05-04 16:18 | 8.73196 | 174.27677 | 34866 ft | 473 kts | 59° |
| 2026-05-04 16:19 | 8.81055 | 174.42424 | 34873 ft | 480 kts | 59° |
| 2026-05-04 16:20 | 8.88977 | 174.57307 | 34862 ft | 483 kts | 59° |
| 2026-05-04 16:22 | 8.96923 | 174.72254 | 34862 ft | 481 kts | 59° |
| 2026-05-04 16:23 | 9.06371 | 174.90049 | 34873 ft | 476 kts | 59° |
| 2026-05-04 16:25 | 9.15751 | 175.07740 | 34868 ft | 476 kts | 59° |
| 2026-05-04 16:26 | 9.26728 | 175.28473 | 34876 ft | 480 kts | 59° |
| 2026-05-04 16:28 | 9.34618 | 175.43401 | 34876 ft | 482 kts | 59° |
| 2026-05-04 16:29 | 9.45698 | 175.64395 | 34877 ft | 483 kts | 58° |
| 2026-05-04 16:31 | 9.53603 | 175.79394 | 34881 ft | 482 kts | 58° |
| 2026-05-04 16:32 | 9.63071 | 175.97385 | 34881 ft | 482 kts | 58° |
| 2026-05-04 16:33 | 9.69372 | 176.09373 | 34885 ft | 482 kts | 58° |
| 2026-05-04 16:34 | 9.74095 | 176.18367 | 34883 ft | 482 kts | 58° |
| 2026-05-04 16:35 | 9.83534 | 176.36363 | 34886 ft | 483 kts | 58° |
| 2026-05-04 16:36 | 9.88263 | 176.45389 | 34889 ft | 484 kts | 58° |
| 2026-05-04 16:37 | 9.92978 | 176.54397 | 34888 ft | 485 kts | 58° |
| 2026-05-04 16:38 | 9.99307 | 176.66499 | 34884 ft | 486 kts | 58° |
| 2026-05-04 16:39 | 10.07228 | 176.81665 | 34887 ft | 487 kts | 58° |
| 2026-05-04 16:40 | 10.13559 | 176.93799 | 34889 ft | 486 kts | 59° |
| 2026-05-04 16:41 | 10.21455 | 177.08955 | 34884 ft | 486 kts | 58° |
| 2026-05-04 16:43 | 10.29347 | 177.24120 | 34889 ft | 486 kts | 58° |
| 2026-05-04 16:43 | 10.34084 | 177.33234 | 34894 ft | 487 kts | 58° |
| 2026-05-04 16:45 | 10.43575 | 177.51519 | 34896 ft | 489 kts | 59° |
| 2026-05-04 16:46 | 10.51497 | 177.66805 | 34902 ft | 489 kts | 59° |
| 2026-05-04 16:47 | 10.57838 | 177.79055 | 34907 ft | 490 kts | 58° |
| 2026-05-04 16:48 | 10.64162 | 177.91287 | 34903 ft | 491 kts | 58° |
| 2026-05-04 16:49 | 10.70510 | 178.03580 | 34902 ft | 491 kts | 58° |
| 2026-05-04 16:50 | 10.76859 | 178.15887 | 34903 ft | 492 kts | 59° |
| 2026-05-04 16:51 | 10.81622 | 178.25131 | 34905 ft | 492 kts | 59° |
| 2026-05-04 16:52 | 10.87974 | 178.37472 | 34911 ft | 493 kts | 59° |
| 2026-05-04 16:53 | 10.92737 | 178.46736 | 34907 ft | 493 kts | 59° |
| 2026-05-04 16:54 | 10.99089 | 178.59103 | 34907 ft | 493 kts | 59° |
| 2026-05-04 16:55 | 11.08614 | 178.77676 | 34910 ft | 493 kts | 59° |
| 2026-05-04 16:56 | 11.16540 | 178.93157 | 34913 ft | 493 kts | 59° |
| 2026-05-04 16:57 | 11.21293 | 179.02451 | 34907 ft | 493 kts | 59° |
| 2026-05-04 16:58 | 11.27603 | 179.14804 | 34911 ft | 493 kts | 59° |
| 2026-05-04 17:00 | 11.36585 | 179.32414 | 34911 ft | 494 kts | 59° |
| 2026-05-04 17:01 | 11.44467 | 179.47896 | 34913 ft | 493 kts | 59° |
| 2026-05-04 17:02 | 11.50782 | 179.60316 | 34912 ft | 493 kts | 59° |
| 2026-05-04 17:03 | 11.55510 | 179.69627 | 34913 ft | 493 kts | 59° |
| 2026-05-04 17:03 | 11.60233 | 179.78937 | 34912 ft | 493 kts | 59° |
| 2026-05-04 17:04 | 11.66522 | 179.91347 | 34918 ft | 492 kts | 59° |
| 2026-05-04 17:05 | 11.72833 | -179.96249 | 34919 ft | 492 kts | 59° |
| 2026-05-04 17:06 | 11.77697 | -179.87023 | 34921 ft | 492 kts | 59° |
| 2026-05-04 17:07 | 11.82010 | -179.78834 | 34926 ft | 492 kts | 59° |
| 2026-05-04 17:07 | 11.85789 | -179.71624 | 34922 ft | 493 kts | 59° |
| 2026-05-04 17:08 | 11.90611 | -179.62408 | 34925 ft | 493 kts | 59° |
| 2026-05-04 17:09 | 11.93839 | -179.56234 | 34925 ft | 493 kts | 59° |
| 2026-05-04 17:09 | 11.97066 | -179.50060 | 34926 ft | 493 kts | 59° |
| 2026-05-04 17:10 | 12.05131 | -179.34609 | 34939 ft | 493 kts | 59° |
| 2026-05-04 17:11 | 12.08355 | -179.28426 | 34930 ft | 493 kts | 59° |
| 2026-05-04 17:12 | 12.13191 | -179.19145 | 34928 ft | 493 kts | 59° |
| 2026-05-04 17:13 | 12.21233 | -179.03687 | 34929 ft | 492 kts | 59° |
| 2026-05-04 17:14 | 12.27655 | -178.91325 | 34930 ft | 492 kts | 59° |
| 2026-05-04 17:15 | 12.32467 | -178.82052 | 34934 ft | 492 kts | 59° |
| 2026-05-04 17:16 | 12.38875 | -178.69688 | 34933 ft | 492 kts | 59° |
| 2026-05-04 17:17 | 12.45278 | -178.57316 | 34940 ft | 492 kts | 59° |
| 2026-05-04 17:18 | 12.51679 | -178.44932 | 34936 ft | 492 kts | 59° |
| 2026-05-04 17:19 | 12.58052 | -178.32586 | 34944 ft | 492 kts | 59° |
| 2026-05-04 17:20 | 12.64443 | -178.20185 | 34947 ft | 493 kts | 59° |
| 2026-05-04 17:20 | 12.69236 | -178.10876 | 34945 ft | 493 kts | 60° |
| 2026-05-04 17:21 | 12.75623 | -177.98454 | 34944 ft | 493 kts | 60° |
| 2026-05-04 17:22 | 12.78816 | -177.92236 | 34948 ft | 493 kts | 60° |
| 2026-05-04 17:23 | 12.85202 | -177.79791 | 34948 ft | 493 kts | 60° |
| 2026-05-04 17:24 | 12.89989 | -177.70448 | 34946 ft | 494 kts | 60° |
| 2026-05-04 17:25 | 12.96368 | -177.57983 | 34949 ft | 494 kts | 60° |
| 2026-05-04 17:26 | 13.02742 | -177.45512 | 34948 ft | 494 kts | 60° |
| 2026-05-04 17:27 | 13.10682 | -177.29949 | 34953 ft | 494 kts | 60° |
| 2026-05-04 17:28 | 13.17047 | -177.17454 | 34957 ft | 494 kts | 60° |
| 2026-05-04 17:29 | 13.26590 | -176.98685 | 34957 ft | 495 kts | 60° |
| 2026-05-04 17:31 | 13.34534 | -176.83029 | 34964 ft | 495 kts | 60° |
| 2026-05-04 17:32 | 13.42476 | -176.67348 | 34958 ft | 495 kts | 60° |
| 2026-05-04 17:33 | 13.48821 | -176.54799 | 34981 ft | 495 kts | 60° |
| 2026-05-04 17:34 | 13.55166 | -176.42230 | 34966 ft | 495 kts | 60° |
| 2026-05-04 17:35 | 13.63089 | -176.26510 | 34962 ft | 495 kts | 60° |
| 2026-05-04 17:36 | 13.66252 | -176.20224 | 34964 ft | 495 kts | 60° |
| 2026-05-04 17:36 | 13.69417 | -176.13932 | 34967 ft | 495 kts | 60° |
| 2026-05-04 17:37 | 13.72577 | -176.07643 | 34969 ft | 495 kts | 60° |
| 2026-05-04 17:37 | 13.75735 | -176.01354 | 34971 ft | 495 kts | 60° |
| 2026-05-04 17:38 | 13.78872 | -175.95102 | 34970 ft | 495 kts | 60° |
| 2026-05-04 17:38 | 13.82025 | -175.88812 | 34973 ft | 495 kts | 60° |
| 2026-05-04 17:39 | 13.86759 | -175.79362 | 34966 ft | 495 kts | 60° |
| 2026-05-04 17:39 | 13.89913 | -175.73059 | 34969 ft | 495 kts | 60° |
| 2026-05-04 17:40 | 13.93063 | -175.66758 | 34970 ft | 495 kts | 60° |
| 2026-05-04 17:40 | 13.96211 | -175.60457 | 34975 ft | 495 kts | 60° |
| 2026-05-04 17:41 | 13.99356 | -175.54158 | 34970 ft | 494 kts | 60° |
| 2026-05-04 17:41 | 14.02496 | -175.47862 | 34967 ft | 494 kts | 60° |
| 2026-05-04 17:42 | 14.05632 | -175.41570 | 34964 ft | 494 kts | 61° |
| 2026-05-04 17:42 | 14.08768 | -175.35274 | 34968 ft | 494 kts | 61° |
| 2026-05-04 17:43 | 14.11900 | -175.28980 | 34976 ft | 494 kts | 61° |
| 2026-05-04 17:43 | 14.15031 | -175.22683 | 34970 ft | 494 kts | 61° |
| 2026-05-04 17:44 | 14.18159 | -175.16387 | 34985 ft | 494 kts | 61° |
| 2026-05-04 17:44 | 14.21289 | -175.10082 | 34975 ft | 494 kts | 61° |
| 2026-05-04 17:45 | 14.24394 | -175.03822 | 34976 ft | 494 kts | 61° |
| 2026-05-04 17:45 | 14.27517 | -174.97521 | 34976 ft | 494 kts | 61° |
| 2026-05-04 17:46 | 14.30638 | -174.91219 | 34982 ft | 493 kts | 61° |
| 2026-05-04 17:46 | 14.33757 | -174.84917 | 34983 ft | 493 kts | 61° |
| 2026-05-04 17:47 | 14.36871 | -174.78618 | 34983 ft | 493 kts | 61° |
| 2026-05-04 17:47 | 14.39961 | -174.72362 | 34983 ft | 493 kts | 61° |
| 2026-05-04 17:48 | 14.43068 | -174.66068 | 34979 ft | 493 kts | 61° |
| 2026-05-04 17:48 | 14.46178 | -174.59764 | 34988 ft | 493 kts | 61° |
| 2026-05-04 17:49 | 14.48779 | -174.54487 | 34986 ft | 493 kts | 61° |
| 2026-05-04 17:49 | 14.51887 | -174.48176 | 35008 ft | 493 kts | 62° |
| 2026-05-04 17:50 | 14.54992 | -174.41865 | 34984 ft | 493 kts | 62° |
| 2026-05-04 17:50 | 14.58095 | -174.35553 | 34987 ft | 493 kts | 62° |
| 2026-05-04 17:51 | 14.61194 | -174.29246 | 34988 ft | 492 kts | 62° |
| 2026-05-04 17:51 | 14.64287 | -174.22945 | 34988 ft | 492 kts | 62° |
| 2026-05-04 17:52 | 14.67354 | -174.16691 | 34987 ft | 491 kts | 62° |
| 2026-05-04 17:52 | 14.70436 | -174.10401 | 34989 ft | 491 kts | 62° |
| 2026-05-04 17:53 | 14.73514 | -174.04116 | 34994 ft | 490 kts | 62° |
| 2026-05-04 17:53 | 14.76589 | -173.97829 | 34995 ft | 490 kts | 62° |
| 2026-05-04 17:54 | 14.79661 | -173.91546 | 34992 ft | 490 kts | 62° |
| 2026-05-04 17:54 | 14.82727 | -173.85269 | 34993 ft | 489 kts | 62° |
| 2026-05-04 17:55 | 14.85794 | -173.78983 | 35015 ft | 489 kts | 62° |
| 2026-05-04 17:55 | 14.88856 | -173.72703 | 35000 ft | 489 kts | 62° |
| 2026-05-04 17:56 | 14.91915 | -173.66424 | 34996 ft | 489 kts | 62° |
| 2026-05-04 17:56 | 14.94968 | -173.60152 | 34998 ft | 488 kts | 62° |
| 2026-05-04 17:57 | 14.98016 | -173.53885 | 34999 ft | 487 kts | 62° |
| 2026-05-04 17:57 | 15.01058 | -173.47625 | 34997 ft | 487 kts | 63° |
| 2026-05-04 17:58 | 15.04094 | -173.41372 | 35000 ft | 486 kts | 63° |
| 2026-05-04 17:58 | 15.07125 | -173.35125 | 34999 ft | 486 kts | 63° |
| 2026-05-04 17:59 | 15.10153 | -173.28878 | 34999 ft | 486 kts | 63° |
| 2026-05-04 18:00 | 15.14692 | -173.19504 | 35005 ft | 486 kts | 63° |
| 2026-05-04 18:00 | 15.17718 | -173.13247 | 35006 ft | 486 kts | 63° |
| 2026-05-04 18:01 | 15.20743 | -173.06988 | 35014 ft | 487 kts | 63° |
| 2026-05-04 18:01 | 15.23773 | -173.00714 | 35010 ft | 487 kts | 63° |
| 2026-05-04 18:02 | 15.28322 | -172.91282 | 35012 ft | 488 kts | 63° |
| 2026-05-04 18:02 | 15.31337 | -172.85023 | 35011 ft | 489 kts | 63° |
| 2026-05-04 18:03 | 15.34373 | -172.78717 | 35011 ft | 490 kts | 63° |
| 2026-05-04 18:03 | 15.37411 | -172.72400 | 35009 ft | 490 kts | 63° |
| 2026-05-04 18:04 | 15.40449 | -172.66079 | 35016 ft | 490 kts | 63° |
| 2026-05-04 18:05 | 15.45003 | -172.56591 | 35015 ft | 490 kts | 63° |
| 2026-05-04 18:05 | 15.48035 | -172.50268 | 35017 ft | 490 kts | 63° |
| 2026-05-04 18:06 | 15.52579 | -172.40780 | 35034 ft | 489 kts | 63° |
| 2026-05-04 18:06 | 15.55604 | -172.34458 | 35014 ft | 489 kts | 63° |
| 2026-05-04 18:07 | 15.58618 | -172.28152 | 35017 ft | 487 kts | 63° |
| 2026-05-04 18:07 | 15.61625 | -172.21856 | 35019 ft | 486 kts | 63° |
| 2026-05-04 18:08 | 15.64620 | -172.15579 | 35021 ft | 485 kts | 63° |
| 2026-05-04 18:08 | 15.67608 | -172.09310 | 35021 ft | 484 kts | 63° |
| 2026-05-04 18:09 | 15.73544 | -171.96842 | 35022 ft | 483 kts | 63° |
| 2026-05-04 18:10 | 15.76516 | -171.90591 | 35025 ft | 483 kts | 63° |
| 2026-05-04 18:10 | 15.79486 | -171.84338 | 35025 ft | 483 kts | 63° |
| 2026-05-04 18:11 | 15.82458 | -171.78076 | 35025 ft | 483 kts | 63° |
| 2026-05-04 18:11 | 15.85429 | -171.71810 | 35037 ft | 484 kts | 63° |
| 2026-05-04 18:12 | 15.88401 | -171.65536 | 35021 ft | 484 kts | 63° |
| 2026-05-04 18:12 | 15.91373 | -171.59256 | 35025 ft | 484 kts | 63° |
| 2026-05-04 18:13 | 15.94327 | -171.52967 | 35032 ft | 485 kts | 64° |
| 2026-05-04 18:14 | 15.98612 | -171.43450 | 35035 ft | 485 kts | 65° |
| 2026-05-04 18:14 | 16.01456 | -171.37092 | 35032 ft | 485 kts | 65° |
| 2026-05-04 18:15 | 16.07164 | -171.24388 | 35030 ft | 485 kts | 65° |
| 2026-05-04 18:16 | 16.10018 | -171.18038 | 35036 ft | 485 kts | 65° |
| 2026-05-04 18:16 | 16.12868 | -171.11687 | 35032 ft | 485 kts | 65° |
| 2026-05-04 18:17 | 16.17143 | -171.02151 | 35047 ft | 485 kts | 65° |
| 2026-05-04 18:18 | 16.21412 | -170.92615 | 35035 ft | 485 kts | 65° |
| 2026-05-04 18:18 | 16.24235 | -170.86301 | 35034 ft | 484 kts | 65° |
| 2026-05-04 18:19 | 16.28493 | -170.76768 | 35038 ft | 484 kts | 65° |
| 2026-05-04 18:19 | 16.31326 | -170.70415 | 35040 ft | 484 kts | 65° |
| 2026-05-04 18:20 | 16.34157 | -170.64062 | 35042 ft | 484 kts | 65° |
| 2026-05-04 18:20 | 16.36986 | -170.57709 | 35043 ft | 484 kts | 65° |
| 2026-05-04 18:21 | 16.39812 | -170.51353 | 35040 ft | 484 kts | 65° |
| 2026-05-04 18:21 | 16.42636 | -170.44998 | 35048 ft | 484 kts | 65° |
| 2026-05-04 18:22 | 16.45461 | -170.38635 | 35046 ft | 484 kts | 65° |
| 2026-05-04 18:22 | 16.48287 | -170.32263 | 35058 ft | 484 kts | 65° |
| 2026-05-04 18:23 | 16.51110 | -170.25890 | 35043 ft | 485 kts | 65° |
| 2026-05-04 18:23 | 16.53935 | -170.19507 | 35048 ft | 485 kts | 65° |
| 2026-05-04 18:24 | 16.56758 | -170.13124 | 35046 ft | 485 kts | 65° |
| 2026-05-04 18:24 | 16.59577 | -170.06741 | 35053 ft | 485 kts | 65° |
| 2026-05-04 18:25 | 16.62395 | -170.00355 | 35051 ft | 485 kts | 65° |
| 2026-05-04 18:25 | 16.65212 | -169.93966 | 35052 ft | 485 kts | 65° |
| 2026-05-04 18:26 | 16.68006 | -169.87622 | 35053 ft | 485 kts | 65° |
| 2026-05-04 18:26 | 16.70817 | -169.81234 | 35051 ft | 485 kts | 65° |
| 2026-05-04 18:27 | 16.73628 | -169.74839 | 35046 ft | 485 kts | 65° |
| 2026-05-04 18:27 | 16.76437 | -169.68442 | 35057 ft | 485 kts | 65° |
| 2026-05-04 18:28 | 16.79247 | -169.62037 | 35070 ft | 485 kts | 65° |
| 2026-05-04 18:28 | 16.82055 | -169.55630 | 35057 ft | 486 kts | 65° |
| 2026-05-04 18:29 | 16.84860 | -169.49222 | 35053 ft | 485 kts | 65° |
| 2026-05-04 18:29 | 16.87660 | -169.42821 | 35056 ft | 485 kts | 65° |
| 2026-05-04 18:30 | 16.91851 | -169.33226 | 35061 ft | 484 kts | 65° |
| 2026-05-04 18:31 | 16.94640 | -169.26832 | 35062 ft | 483 kts | 65° |
| 2026-05-04 18:31 | 16.97424 | -169.20446 | 35059 ft | 483 kts | 65° |
| 2026-05-04 18:32 | 17.00204 | -169.14061 | 35059 ft | 483 kts | 65° |
| 2026-05-04 18:32 | 17.02983 | -169.07672 | 35060 ft | 483 kts | 65° |
| 2026-05-04 18:33 | 17.05758 | -169.01285 | 35059 ft | 483 kts | 65° |
| 2026-05-04 18:33 | 17.08533 | -168.94893 | 35066 ft | 483 kts | 65° |
| 2026-05-04 18:34 | 17.11309 | -168.88491 | 35072 ft | 484 kts | 65° |
| 2026-05-04 18:34 | 17.14085 | -168.82083 | 35061 ft | 484 kts | 65° |
| 2026-05-04 18:35 | 17.16861 | -168.75667 | 35068 ft | 484 kts | 65° |
| 2026-05-04 18:35 | 17.19614 | -168.69299 | 35066 ft | 484 kts | 65° |
| 2026-05-04 18:36 | 17.22382 | -168.62888 | 35058 ft | 484 kts | 65° |
| 2026-05-04 18:36 | 17.25147 | -168.56479 | 35069 ft | 483 kts | 65° |
| 2026-05-04 18:37 | 17.27909 | -168.50071 | 35070 ft | 483 kts | 65° |
| 2026-05-04 18:37 | 17.30669 | -168.43660 | 35068 ft | 483 kts | 65° |
| 2026-05-04 18:38 | 17.33428 | -168.37243 | 35069 ft | 483 kts | 65° |
| 2026-05-04 18:38 | 17.35721 | -168.31908 | 35068 ft | 483 kts | 65° |
| 2026-05-04 18:39 | 17.38476 | -168.25489 | 35068 ft | 484 kts | 65° |
| 2026-05-04 18:39 | 17.41230 | -168.19065 | 35082 ft | 483 kts | 65° |
| 2026-05-04 18:40 | 17.43981 | -168.12644 | 35071 ft | 483 kts | 65° |
| 2026-05-04 18:40 | 17.46725 | -168.06231 | 35066 ft | 482 kts | 65° |
| 2026-05-04 18:41 | 17.49462 | -167.99829 | 35065 ft | 481 kts | 65° |
| 2026-05-04 18:41 | 17.52191 | -167.93437 | 35067 ft | 480 kts | 65° |
| 2026-05-04 18:42 | 17.54915 | -167.87051 | 35068 ft | 480 kts | 65° |
| 2026-05-04 18:42 | 17.57632 | -167.80674 | 35072 ft | 479 kts | 65° |
| 2026-05-04 18:43 | 17.60347 | -167.74295 | 35073 ft | 479 kts | 65° |
| 2026-05-04 18:43 | 17.63061 | -167.67914 | 35075 ft | 479 kts | 65° |
| 2026-05-04 18:44 | 17.65776 | -167.61521 | 35076 ft | 480 kts | 65° |
| 2026-05-04 18:44 | 17.68491 | -167.55123 | 35072 ft | 481 kts | 65° |
| 2026-05-04 18:45 | 17.71209 | -167.48709 | 35082 ft | 482 kts | 65° |
| 2026-05-04 18:45 | 17.73911 | -167.42330 | 35073 ft | 482 kts | 65° |
| 2026-05-04 18:46 | 17.76630 | -167.35901 | 35076 ft | 482 kts | 65° |
| 2026-05-04 18:46 | 17.79347 | -167.29470 | 35076 ft | 482 kts | 65° |
| 2026-05-04 18:47 | 17.82060 | -167.23041 | 35078 ft | 482 kts | 65° |
| 2026-05-04 18:47 | 17.84773 | -167.16607 | 35075 ft | 482 kts | 65° |
| 2026-05-04 18:48 | 17.87479 | -167.10179 | 35081 ft | 481 kts | 65° |
| 2026-05-04 18:48 | 17.90184 | -167.03750 | 35083 ft | 481 kts | 65° |
| 2026-05-04 18:49 | 17.92886 | -166.97319 | 35083 ft | 482 kts | 65° |
| 2026-05-04 18:49 | 17.95589 | -166.90881 | 35082 ft | 482 kts | 65° |
| 2026-05-04 18:50 | 17.98290 | -166.84439 | 35084 ft | 482 kts | 65° |
| 2026-05-04 18:50 | 18.00988 | -166.77996 | 35093 ft | 482 kts | 66° |
| 2026-05-04 18:51 | 18.03686 | -166.71549 | 35081 ft | 482 kts | 66° |
| 2026-05-04 18:51 | 18.06379 | -166.65104 | 35084 ft | 481 kts | 66° |
| 2026-05-04 18:52 | 18.09068 | -166.58663 | 35084 ft | 481 kts | 66° |
| 2026-05-04 18:52 | 18.11752 | -166.52226 | 35084 ft | 481 kts | 66° |
| 2026-05-04 18:53 | 18.14432 | -166.45792 | 35082 ft | 480 kts | 66° |
| 2026-05-04 18:53 | 18.17110 | -166.39358 | 35089 ft | 480 kts | 66° |
| 2026-05-04 18:54 | 18.19785 | -166.32922 | 35082 ft | 480 kts | 66° |
| 2026-05-04 18:54 | 18.22456 | -166.26487 | 35088 ft | 480 kts | 66° |
| 2026-05-04 18:55 | 18.25128 | -166.20045 | 35089 ft | 480 kts | 66° |
| 2026-05-04 18:55 | 18.29114 | -166.10419 | 35083 ft | 481 kts | 66° |
| 2026-05-04 18:56 | 18.31783 | -166.03965 | 35089 ft | 481 kts | 66° |
| 2026-05-04 18:56 | 18.34451 | -165.97506 | 35091 ft | 482 kts | 66° |
| 2026-05-04 18:57 | 18.37121 | -165.91036 | 35090 ft | 482 kts | 66° |
| 2026-05-04 18:57 | 18.39791 | -165.84556 | 35090 ft | 483 kts | 66° |
| 2026-05-04 18:58 | 18.42460 | -165.78073 | 35087 ft | 483 kts | 66° |
| 2026-05-04 18:58 | 18.45131 | -165.71580 | 35091 ft | 483 kts | 66° |
| 2026-05-04 18:59 | 18.47800 | -165.65080 | 35094 ft | 484 kts | 66° |
| 2026-05-04 18:59 | 18.50471 | -165.58572 | 35093 ft | 484 kts | 66° |
| 2026-05-04 19:00 | 18.53141 | -165.52056 | 35094 ft | 484 kts | 66° |
| 2026-05-04 19:00 | 18.55809 | -165.45538 | 35110 ft | 484 kts | 66° |
| 2026-05-04 19:01 | 18.58474 | -165.39021 | 35094 ft | 484 kts | 66° |
| 2026-05-04 19:01 | 18.61135 | -165.32505 | 35093 ft | 484 kts | 66° |
| 2026-05-04 19:02 | 18.63790 | -165.25995 | 35095 ft | 483 kts | 66° |
| 2026-05-04 19:02 | 18.66420 | -165.19543 | 35099 ft | 482 kts | 66° |
| 2026-05-04 19:03 | 18.69060 | -165.13056 | 35097 ft | 481 kts | 66° |
| 2026-05-04 19:03 | 18.71695 | -165.06573 | 35100 ft | 480 kts | 66° |
| 2026-05-04 19:04 | 18.74323 | -165.00100 | 35096 ft | 480 kts | 66° |
| 2026-05-04 19:04 | 18.76948 | -164.93629 | 35103 ft | 480 kts | 66° |
| 2026-05-04 19:05 | 18.79572 | -164.87152 | 35102 ft | 480 kts | 66° |
| 2026-05-04 19:05 | 18.82196 | -164.80666 | 35102 ft | 481 kts | 66° |
| 2026-05-04 19:06 | 18.84821 | -164.74171 | 35111 ft | 481 kts | 66° |
| 2026-05-04 19:06 | 18.87444 | -164.67675 | 35101 ft | 481 kts | 66° |
| 2026-05-04 19:07 | 18.90066 | -164.61173 | 35101 ft | 481 kts | 66° |
| 2026-05-04 19:07 | 18.92683 | -164.54674 | 35103 ft | 480 kts | 66° |
| 2026-05-04 19:08 | 18.95294 | -164.48184 | 35103 ft | 480 kts | 66° |
| 2026-05-04 19:08 | 18.97900 | -164.41698 | 35103 ft | 479 kts | 66° |
| 2026-05-04 19:09 | 19.00501 | -164.35217 | 35103 ft | 479 kts | 66° |
| 2026-05-04 19:09 | 19.03095 | -164.28745 | 35101 ft | 478 kts | 66° |
| 2026-05-04 19:10 | 19.05688 | -164.22269 | 35109 ft | 478 kts | 66° |
| 2026-05-04 19:10 | 19.08278 | -164.15793 | 35103 ft | 478 kts | 66° |
| 2026-05-04 19:11 | 19.10865 | -164.09316 | 35119 ft | 478 kts | 66° |
| 2026-05-04 19:11 | 19.13451 | -164.02833 | 35107 ft | 478 kts | 66° |
| 2026-05-04 19:12 | 19.17308 | -163.93151 | 35105 ft | 478 kts | 66° |
| 2026-05-04 19:13 | 19.19885 | -163.86672 | 35112 ft | 478 kts | 66° |
| 2026-05-04 19:13 | 19.22462 | -163.80185 | 35109 ft | 478 kts | 66° |
| 2026-05-04 19:14 | 19.25034 | -163.73704 | 35112 ft | 478 kts | 66° |
| 2026-05-04 19:14 | 19.27605 | -163.67217 | 35112 ft | 478 kts | 66° |
| 2026-05-04 19:15 | 19.30176 | -163.60724 | 35100 ft | 478 kts | 66° |
| 2026-05-04 19:15 | 19.32744 | -163.54230 | 35114 ft | 478 kts | 66° |
| 2026-05-04 19:16 | 19.35311 | -163.47728 | 35112 ft | 479 kts | 66° |
| 2026-05-04 19:16 | 19.37879 | -163.41217 | 35124 ft | 479 kts | 66° |
| 2026-05-04 19:17 | 19.40446 | -163.34701 | 35109 ft | 479 kts | 66° |
| 2026-05-04 19:17 | 19.43010 | -163.28183 | 35113 ft | 479 kts | 66° |
| 2026-05-04 19:18 | 19.45570 | -163.21669 | 35106 ft | 479 kts | 66° |
| 2026-05-04 19:18 | 19.48127 | -163.15155 | 35113 ft | 478 kts | 66° |
| 2026-05-04 19:19 | 19.50678 | -163.08648 | 35115 ft | 478 kts | 66° |
| 2026-05-04 19:19 | 19.53225 | -163.02141 | 35115 ft | 478 kts | 66° |
| 2026-05-04 19:20 | 19.55767 | -162.95641 | 35117 ft | 477 kts | 66° |
| 2026-05-04 19:20 | 19.58308 | -162.89136 | 35113 ft | 477 kts | 66° |
| 2026-05-04 19:21 | 19.60826 | -162.82679 | 35117 ft | 477 kts | 66° |
| 2026-05-04 19:21 | 19.63376 | -162.76134 | 35130 ft | 477 kts | 66° |
| 2026-05-04 19:22 | 19.65891 | -162.69672 | 35117 ft | 477 kts | 66° |
| 2026-05-04 19:22 | 19.68477 | -162.63184 | 35116 ft | 477 kts | 65° |
| 2026-05-04 19:23 | 19.71093 | -162.56717 | 35113 ft | 477 kts | 65° |
| 2026-05-04 19:23 | 19.73704 | -162.50247 | 35118 ft | 477 kts | 65° |
| 2026-05-04 19:24 | 19.76302 | -162.43777 | 35117 ft | 477 kts | 65° |
| 2026-05-04 19:24 | 19.78898 | -162.37296 | 35118 ft | 477 kts | 65° |
| 2026-05-04 19:25 | 19.81492 | -162.30813 | 35118 ft | 477 kts | 65° |
| 2026-05-04 19:25 | 19.84081 | -162.24332 | 35119 ft | 477 kts | 65° |
| 2026-05-04 19:26 | 19.86670 | -162.17845 | 35123 ft | 477 kts | 65° |
| 2026-05-04 19:26 | 19.89258 | -162.11355 | 35133 ft | 477 kts | 66° |
| 2026-05-04 19:27 | 19.91844 | -162.04858 | 35119 ft | 477 kts | 66° |
| 2026-05-04 19:27 | 19.93991 | -161.99459 | 35121 ft | 477 kts | 66° |
| 2026-05-04 19:28 | 19.96569 | -161.92969 | 35125 ft | 477 kts | 66° |
| 2026-05-04 19:28 | 19.99144 | -161.86479 | 35119 ft | 476 kts | 66° |
| 2026-05-04 19:29 | 20.01714 | -161.79993 | 35122 ft | 476 kts | 66° |
| 2026-05-04 19:29 | 20.04281 | -161.73507 | 35128 ft | 476 kts | 66° |
| 2026-05-04 19:30 | 20.06843 | -161.67025 | 35129 ft | 476 kts | 66° |
| 2026-05-04 19:30 | 20.09405 | -161.60535 | 35128 ft | 476 kts | 66° |
| 2026-05-04 19:31 | 20.11963 | -161.54047 | 35126 ft | 476 kts | 66° |
| 2026-05-04 19:31 | 20.14520 | -161.47552 | 35139 ft | 476 kts | 66° |
| 2026-05-04 19:32 | 20.17076 | -161.41054 | 35127 ft | 476 kts | 66° |
| 2026-05-04 19:32 | 20.19629 | -161.34553 | 35127 ft | 476 kts | 66° |
| 2026-05-04 19:33 | 20.22179 | -161.28051 | 35128 ft | 476 kts | 66° |
| 2026-05-04 19:33 | 20.24726 | -161.21552 | 35132 ft | 475 kts | 66° |
| 2026-05-04 19:34 | 20.27269 | -161.15052 | 35132 ft | 475 kts | 66° |
| 2026-05-04 19:34 | 20.29809 | -161.08553 | 35130 ft | 475 kts | 66° |
| 2026-05-04 19:35 | 20.32344 | -161.02056 | 35130 ft | 475 kts | 66° |
| 2026-05-04 19:35 | 20.34876 | -160.95560 | 35137 ft | 475 kts | 66° |
| 2026-05-04 19:36 | 20.37406 | -160.89060 | 35134 ft | 475 kts | 66° |
| 2026-05-04 19:36 | 20.39685 | -160.82457 | 35142 ft | 475 kts | 70° |
| 2026-05-04 19:37 | 20.41484 | -160.75686 | 35142 ft | 475 kts | 76° |
| 2026-05-04 19:37 | 20.42934 | -160.68812 | 35134 ft | 475 kts | 77° |
| 2026-05-04 19:38 | 20.44371 | -160.61941 | 35136 ft | 475 kts | 77° |
| 2026-05-04 19:38 | 20.45821 | -160.55125 | 35136 ft | 475 kts | 77° |
| 2026-05-04 19:39 | 20.47280 | -160.48326 | 35066 ft | 461 kts | 77° |
| 2026-05-04 19:39 | 20.47991 | -160.45012 | 34741 ft | 456 kts | 77° |
| 2026-05-04 19:39 | 20.48694 | -160.41739 | 34433 ft | 451 kts | 77° |
| 2026-05-04 19:39 | 20.49391 | -160.38487 | 34066 ft | 448 kts | 76° |
| 2026-05-04 19:40 | 20.50083 | -160.35256 | 33664 ft | 446 kts | 76° |
| 2026-05-04 19:40 | 20.50770 | -160.32044 | 33274 ft | 443 kts | 76° |
| 2026-05-04 19:40 | 20.51451 | -160.28854 | 32907 ft | 439 kts | 76° |
| 2026-05-04 19:40 | 20.52127 | -160.25686 | 32542 ft | 436 kts | 76° |
| 2026-05-04 19:41 | 20.52797 | -160.22542 | 32179 ft | 434 kts | 76° |
| 2026-05-04 19:41 | 20.53463 | -160.19414 | 31814 ft | 431 kts | 76° |
| 2026-05-04 19:41 | 20.54124 | -160.16307 | 31459 ft | 428 kts | 76° |
| 2026-05-04 19:41 | 20.54780 | -160.13219 | 31107 ft | 426 kts | 76° |
| 2026-05-04 19:42 | 20.55431 | -160.10152 | 30755 ft | 423 kts | 76° |
| 2026-05-04 19:42 | 20.56080 | -160.07095 | 30405 ft | 421 kts | 76° |
| 2026-05-04 19:42 | 20.56723 | -160.04060 | 30031 ft | 419 kts | 76° |
| 2026-05-04 19:42 | 20.57363 | -160.01035 | 29625 ft | 416 kts | 76° |
| 2026-05-04 19:43 | 20.57998 | -159.98036 | 29239 ft | 413 kts | 76° |
| 2026-05-04 19:43 | 20.58627 | -159.95059 | 28870 ft | 410 kts | 76° |
| 2026-05-04 19:43 | 20.59251 | -159.92103 | 28511 ft | 406 kts | 76° |
| 2026-05-04 19:43 | 20.59869 | -159.89174 | 28159 ft | 403 kts | 76° |
| 2026-05-04 19:44 | 20.60483 | -159.86264 | 27796 ft | 401 kts | 76° |
| 2026-05-04 19:44 | 20.61091 | -159.83374 | 27442 ft | 398 kts | 76° |
| 2026-05-04 19:44 | 20.61696 | -159.80501 | 27091 ft | 395 kts | 76° |
| 2026-05-04 19:44 | 20.62295 | -159.77652 | 26734 ft | 393 kts | 76° |
| 2026-05-04 19:45 | 20.62891 | -159.74816 | 26394 ft | 390 kts | 76° |
| 2026-05-04 19:45 | 20.63475 | -159.72034 | 26053 ft | 388 kts | 76° |
| 2026-05-04 19:45 | 20.64063 | -159.69229 | 25705 ft | 386 kts | 76° |
| 2026-05-04 19:45 | 20.64648 | -159.66442 | 25369 ft | 384 kts | 76° |
| 2026-05-04 19:46 | 20.65230 | -159.63661 | 25030 ft | 383 kts | 76° |
| 2026-05-04 19:46 | 20.65808 | -159.60896 | 24692 ft | 381 kts | 76° |
| 2026-05-04 19:46 | 20.66385 | -159.58137 | 24335 ft | 380 kts | 76° |
| 2026-05-04 19:46 | 20.66959 | -159.55389 | 24008 ft | 378 kts | 76° |
| 2026-05-04 19:47 | 20.67531 | -159.52649 | 23627 ft | 378 kts | 76° |
| 2026-05-04 19:47 | 20.68101 | -159.49916 | 23251 ft | 376 kts | 76° |
| 2026-05-04 19:47 | 20.68667 | -159.47201 | 22884 ft | 374 kts | 76° |
| 2026-05-04 19:47 | 20.69229 | -159.44500 | 22539 ft | 371 kts | 76° |
| 2026-05-04 19:48 | 20.69786 | -159.41822 | 22201 ft | 368 kts | 76° |
| 2026-05-04 19:48 | 20.70339 | -159.39159 | 21865 ft | 366 kts | 76° |
| 2026-05-04 19:48 | 20.70888 | -159.36514 | 21537 ft | 363 kts | 76° |
| 2026-05-04 19:48 | 20.71434 | -159.33885 | 21204 ft | 361 kts | 76° |
| 2026-05-04 19:49 | 20.71975 | -159.31277 | 20880 ft | 359 kts | 76° |
| 2026-05-04 19:49 | 20.72513 | -159.28679 | 20550 ft | 357 kts | 76° |
| 2026-05-04 19:49 | 20.73048 | -159.26096 | 20236 ft | 355 kts | 77° |
| 2026-05-04 19:49 | 20.73579 | -159.23529 | 19913 ft | 353 kts | 76° |
| 2026-05-04 19:50 | 20.74108 | -159.20969 | 19591 ft | 352 kts | 77° |
| 2026-05-04 19:50 | 20.74633 | -159.18425 | 19273 ft | 350 kts | 77° |
| 2026-05-04 19:50 | 20.75156 | -159.15891 | 18957 ft | 349 kts | 77° |
| 2026-05-04 19:50 | 20.75677 | -159.13365 | 18645 ft | 347 kts | 77° |
| 2026-05-04 19:51 | 20.76196 | -159.10850 | 18287 ft | 347 kts | 77° |
| 2026-05-04 19:51 | 20.76712 | -159.08340 | 17938 ft | 345 kts | 77° |
| 2026-05-04 19:51 | 20.77225 | -159.05849 | 17603 ft | 343 kts | 77° |
| 2026-05-04 19:51 | 20.77737 | -159.03360 | 17186 ft | 344 kts | 77° |
| 2026-05-04 19:52 | 20.78247 | -159.00874 | 16848 ft | 342 kts | 78° |
| 2026-05-04 19:52 | 20.78756 | -158.98397 | 16507 ft | 340 kts | 78° |
| 2026-05-04 19:52 | 20.79261 | -158.95933 | 16184 ft | 338 kts | 78° |
| 2026-05-04 19:52 | 20.79763 | -158.93484 | 15861 ft | 337 kts | 78° |
| 2026-05-04 19:53 | 20.80263 | -158.91043 | 15547 ft | 335 kts | 78° |
| 2026-05-04 19:53 | 20.80759 | -158.88618 | 15249 ft | 333 kts | 79° |
| 2026-05-04 19:53 | 20.81252 | -158.86210 | 14953 ft | 331 kts | 79° |
| 2026-05-04 19:53 | 20.81741 | -158.83815 | 14659 ft | 329 kts | 79° |
| 2026-05-04 19:54 | 20.82227 | -158.81435 | 14364 ft | 327 kts | 79° |
| 2026-05-04 19:54 | 20.82710 | -158.79064 | 14069 ft | 326 kts | 79° |
| 2026-05-04 19:54 | 20.83193 | -158.76697 | 13719 ft | 326 kts | 79° |
| 2026-05-04 19:54 | 20.83676 | -158.74326 | 13337 ft | 326 kts | 79° |
| 2026-05-04 19:55 | 20.84155 | -158.71968 | 13020 ft | 324 kts | 79° |
| 2026-05-04 19:55 | 20.84632 | -158.69624 | 12706 ft | 322 kts | 79° |
| 2026-05-04 19:55 | 20.85106 | -158.67294 | 12405 ft | 319 kts | 79° |
| 2026-05-04 19:55 | 20.85575 | -158.64983 | 12108 ft | 317 kts | 79° |
| 2026-05-04 19:56 | 20.86035 | -158.62716 | 11818 ft | 315 kts | 79° |
| 2026-05-04 19:56 | 20.86498 | -158.60436 | 11525 ft | 313 kts | 79° |
| 2026-05-04 19:56 | 20.86958 | -158.58166 | 11226 ft | 311 kts | 79° |
| 2026-05-04 19:56 | 20.87415 | -158.55909 | 10941 ft | 309 kts | 79° |
| 2026-05-04 19:57 | 20.87868 | -158.53671 | 10651 ft | 307 kts | 79° |
| 2026-05-04 19:57 | 20.88318 | -158.51444 | 10365 ft | 306 kts | 78° |
| 2026-05-04 19:57 | 20.88765 | -158.49231 | 10115 ft | 302 kts | 78° |
| 2026-05-04 19:57 | 20.89203 | -158.47062 | 9967 ft | 295 kts | 78° |
| 2026-05-04 19:58 | 20.89636 | -158.44916 | 9646 ft | 294 kts | 78° |
| 2026-05-04 19:58 | 20.90066 | -158.42786 | 9364 ft | 292 kts | 78° |
| 2026-05-04 19:58 | 20.90493 | -158.40669 | 9091 ft | 290 kts | 79° |
| 2026-05-04 19:58 | 20.90916 | -158.38569 | 8818 ft | 288 kts | 79° |
| 2026-05-04 19:59 | 20.91335 | -158.36486 | 8547 ft | 286 kts | 79° |
| 2026-05-04 19:59 | 20.91751 | -158.34416 | 8277 ft | 284 kts | 79° |
| 2026-05-04 19:59 | 20.92165 | -158.32358 | 8001 ft | 282 kts | 79° |
| 2026-05-04 19:59 | 20.92576 | -158.30310 | 7735 ft | 281 kts | 79° |
| 2026-05-04 20:00 | 20.92985 | -158.28273 | 7459 ft | 279 kts | 79° |
| 2026-05-04 20:00 | 20.93392 | -158.26246 | 7189 ft | 278 kts | 79° |
| 2026-05-04 20:00 | 20.94080 | -158.24322 | 6890 ft | 281 kts | 55° |
| 2026-05-04 20:00 | 20.95526 | -158.22952 | 6723 ft | 277 kts | 31° |
| 2026-05-04 20:01 | 20.97266 | -158.22072 | 6477 ft | 276 kts | 24° |
| 2026-05-04 20:01 | 20.99036 | -158.21280 | 6199 ft | 275 kts | 24° |
| 2026-05-04 20:01 | 21.00799 | -158.20498 | 5929 ft | 274 kts | 24° |
| 2026-05-04 20:01 | 21.02552 | -158.19712 | 5664 ft | 272 kts | 24° |
| 2026-05-04 20:02 | 21.04294 | -158.18923 | 5400 ft | 271 kts | 24° |
| 2026-05-04 20:02 | 21.06025 | -158.18133 | 5134 ft | 270 kts | 25° |
| 2026-05-04 20:02 | 21.07742 | -158.17345 | 4874 ft | 268 kts | 25° |
| 2026-05-04 20:02 | 21.09450 | -158.16559 | 4619 ft | 266 kts | 25° |
| 2026-05-04 20:03 | 21.11147 | -158.15776 | 4358 ft | 265 kts | 25° |
| 2026-05-04 20:03 | 21.12832 | -158.14998 | 4117 ft | 263 kts | 25° |
| 2026-05-04 20:03 | 21.14510 | -158.14222 | 3852 ft | 262 kts | 26° |
| 2026-05-04 20:03 | 21.16176 | -158.13451 | 3585 ft | 260 kts | 27° |
| 2026-05-04 20:04 | 21.17582 | -158.12355 | 3496 ft | 244 kts | 54° |
| 2026-05-04 20:04 | 21.18571 | -158.10923 | 3416 ft | 236 kts | 55° |
| 2026-05-04 20:04 | 21.19528 | -158.09536 | 3321 ft | 228 kts | 56° |
| 2026-05-04 20:04 | 21.20463 | -158.08204 | 3223 ft | 220 kts | 55° |
| 2026-05-04 20:05 | 21.21378 | -158.06907 | 3031 ft | 217 kts | 54° |
| 2026-05-04 20:05 | 21.22284 | -158.05624 | 2818 ft | 215 kts | 55° |
| 2026-05-04 20:05 | 21.23175 | -158.04361 | 2622 ft | 209 kts | 54° |
| 2026-05-04 20:05 | 21.24031 | -158.03148 | 2430 ft | 200 kts | 55° |
| 2026-05-04 20:06 | 21.24841 | -158.02001 | 2168 ft | 189 kts | 54° |
| 2026-05-04 20:06 | 21.25601 | -158.00926 | 1938 ft | 171 kts | 56° |
| 2026-05-04 20:06 | 21.26277 | -157.99967 | 1696 ft | 153 kts | 54° |
| 2026-05-04 20:06 | 21.26884 | -157.99108 | 1508 ft | 137 kts | 56° |
| 2026-05-04 20:07 | 21.27450 | -157.98304 | 1337 ft | 141 kts | 55° |
| 2026-05-04 20:07 | 21.28038 | -157.97471 | 1148 ft | 141 kts | 53° |
| 2026-05-04 20:07 | 21.28622 | -157.96662 | 1008 ft | 133 kts | 52° |
| 2026-05-04 20:07 | 21.29169 | -157.95863 | 792 ft | 138 kts | 53° |
| 2026-05-04 20:08 | 21.29778 | -157.95018 | 626 ft | 143 kts | 51° |
| 2026-05-04 20:08 | 21.30378 | -157.94156 | 426 ft | 146 kts | 51° |
| 2026-05-04 20:08 | 21.30992 | -157.93289 | 223 ft | 146 kts | 51° |
| 2026-05-04 20:08 | 21.31605 | -157.92411 | 36 ft | 144 kts | 51° |
| 2026-05-04 20:09 | 21.32135 | -157.91661 | 25 ft | 105 kts | 53° |
| 2026-05-04 20:09 | 21.32428 | -157.91252 | 23 ft | 25 kts | 58° |
| 2026-05-04 20:09 | 21.32444 | -157.91224 | 23 ft | 0 kts | 59° |
| 2026-05-04 20:09 | 21.32453 | -157.91209 | 25 ft | 10 kts | 55° |
| 2026-05-04 20:10 | 21.32519 | -157.91172 | 24 ft | 11 kts | 330° |
| 2026-05-04 20:10 | 21.32535 | -157.91260 | 23 ft | 18 kts | 260° |
| 2026-05-04 20:10 | 21.32626 | -157.91317 | 24 ft | 20 kts | 3° |
| 2026-05-04 20:10 | 21.32690 | -157.91397 | 23 ft | 16 kts | 269° |
| 2026-05-04 20:11 | 21.32688 | -157.91527 | 23 ft | 22 kts | 269° |
| 2026-05-04 20:11 | 21.32692 | -157.91717 | 23 ft | 28 kts | 268° |
| 2026-05-04 20:11 | 21.32690 | -157.91920 | 23 ft | 26 kts | 270° |
| 2026-05-04 20:11 | 21.32692 | -157.92109 | 23 ft | 25 kts | 271° |
| 2026-05-04 20:12 | 21.32714 | -157.92242 | 26 ft | 14 kts | 332° |
| 2026-05-04 20:12 | 21.32811 | -157.92240 | 23 ft | 14 kts | 3° |
| 2026-05-04 20:12 | 21.32905 | -157.92229 | 23 ft | 13 kts | 8° |
| 2026-05-04 20:12 | 21.32984 | -157.92190 | 23 ft | 13 kts | 45° |
| 2026-05-04 20:13 | 21.33053 | -157.92133 | 23 ft | 13 kts | 14° |
| 2026-05-04 20:13 | 21.33121 | -157.92121 | 23 ft | 0 kts | 9° |
| 2026-05-04 20:13 | 21.33128 | -157.92120 | 23 ft | 0 kts | 8° |